Time;durP1;ratioP1;P1;durP2;ratioP2;P2;SDS_P1;SDS_P2;PMS_P1;PMS_P2;Temp;Humidity;BMP_temperature;BMP_pressure;BME280_temperature;BME280_humidity;BME280_pressure;Samples;Min_cycle;Max_cycle;Signal;HPM_P1;HPM_P2
2021/07/07 11:43:59;;;;;;;2.40;2.20;;;21.40;99.90;;;;;;6092355;23;20514;-49
2021/07/07 11:46:31;;;;;;;4.63;3.00;;;21.50;99.90;;;;;;6166307;23;20593;-44
2021/07/07 11:49:19;;;;;;;3.50;2.70;;;21.50;99.90;;;;;;6192685;23;20407;-41
2021/07/07 11:51:52;;;;;;;2.90;2.67;;;21.60;99.90;;;;;;6192326;23;20421;-45
2021/07/07 11:54:29;;;;;;;;;;;;;;;;;;;;;
2021/07/07 11:57:03;;;;;;;3.97;3.00;;;21.50;99.90;;;;;;6190749;23;20495;-42
2021/07/07 11:59:44;;;;;;;3.53;2.80;;;21.40;99.90;;;;;;6192477;23;20492;-44
2021/07/07 12:02:15;;;;;;;4.30;3.30;;;21.50;99.90;;;;;;6192241;23;20437;-43
2021/07/07 12:04:47;;;;;;;3.30;3.00;;;21.60;99.90;;;;;;6192191;23;20440;-46
2021/07/07 12:07:30;;;;;;;2.77;2.33;;;21.70;99.90;;;;;;6190754;23;20417;-50
2021/07/07 12:10:27;;;;;;;9.33;3.20;;;21.80;99.90;;;;;;6191669;23;20681;-48
2021/07/07 12:12:54;;;;;;;3.23;2.90;;;22.00;99.90;;;;;;6191815;23;20463;-46
2021/07/07 12:15:24;;;;;;;3.13;2.70;;;22.30;99.90;;;;;;6191213;23;20433;-43
2021/07/07 12:17:51;;;;;;;3.40;3.10;;;22.70;99.90;;;;;;6191671;23;20389;-52
2021/07/07 12:20:19;;;;;;;3.80;2.93;;;23.20;99.90;;;;;;6191943;23;20432;-42
2021/07/07 12:23:01;;;;;;;4.30;3.90;;;23.50;99.90;;;;;;6192163;23;20436;-44
2021/07/07 12:25:27;;;;;;;3.53;2.60;;;23.70;99.90;;;;;;6191364;23;20385;-45
2021/07/07 12:27:57;;;;;;;5.90;2.83;;;23.80;99.90;;;;;;6191893;23;20409;-44
2021/07/07 12:30:25;;;;;;;2.67;2.40;;;23.90;99.90;;;;;;6191623;23;20612;-43
2021/07/07 12:32:54;;;;;;;3.53;2.20;;;23.90;99.90;;;;;;6190880;23;20700;-42
2021/07/07 12:35:22;;;;;;;3.50;2.23;;;23.90;99.90;;;;;;6191870;23;20426;-41
2021/07/07 12:37:49;;;;;;;4.67;3.50;;;23.90;99.90;;;;;;6191205;23;20405;-45
2021/07/07 12:40:21;;;;;;;6.67;5.00;;;24.00;99.90;;;;;;6191670;23;20427;-43
2021/07/07 12:42:51;;;;;;;4.63;3.60;;;24.10;99.90;;;;;;6191304;23;20441;-46
2021/07/07 12:45:18;;;;;;;3.60;2.20;;;24.30;99.90;;;;;;6191142;23;20389;-44
2021/07/07 12:48:03;;;;;;;2.10;1.60;;;24.60;99.90;;;;;;6190785;23;20963;-50
2021/07/07 12:50:34;;;;;;;1.73;1.63;;;25.00;99.90;;;;;;6191394;23;20420;-45
2021/07/07 12:53:01;;;;;;;2.13;1.80;;;25.20;99.90;;;;;;6191479;23;20400;-47
2021/07/07 12:55:29;;;;;;;2.37;1.90;;;25.30;99.90;;;;;;6191626;23;20430;-45
2021/07/07 12:58:01;;;;;;;2.33;1.43;;;25.30;99.90;;;;;;6190715;23;20731;-44
2021/07/07 13:00:40;;;;;;;2.50;1.53;;;25.10;99.90;;;;;;6190381;23;20405;-42
2021/07/07 13:03:10;;;;;;;2.00;1.63;;;25.00;99.90;;;;;;6188870;23;20731;-42
2021/07/07 13:05:39;;;;;;;3.13;2.30;;;25.00;99.90;;;;;;6187914;23;20496;-46
2021/07/07 13:08:08;;;;;;;3.77;2.37;;;25.10;99.90;;;;;;6188556;23;20401;-48
2021/07/07 13:10:41;;;;;;;2.07;1.97;;;25.10;99.90;;;;;;6188431;23;20420;-47
2021/07/07 13:13:26;;;;;;;2.30;1.90;;;25.10;99.90;;;;;;6188401;23;20395;-43
2021/07/07 13:16:07;;;;;;;2.70;2.00;;;25.10;99.90;;;;;;6188505;23;20413;-42
2021/07/07 13:18:36;;;;;;;3.57;2.70;;;24.90;99.90;;;;;;6190151;23;20715;-48
2021/07/07 13:21:06;;;;;;;3.33;2.93;;;24.60;99.90;;;;;;6187184;23;20404;-47
2021/07/07 13:23:34;;;;;;;2.70;2.50;;;24.60;99.90;;;;;;6187197;23;20447;-45
2021/07/07 13:26:23;;;;;;;6.33;2.70;;;24.50;99.90;;;;;;6187268;23;20405;-44
2021/07/07 13:28:51;;;;;;;5.70;3.00;;;24.30;99.90;;;;;;6186915;23;20444;-44
2021/07/07 13:31:20;;;;;;;3.00;2.47;;;24.10;99.90;;;;;;6187092;23;20431;-44
2021/07/07 13:33:49;;;;;;;4.23;2.67;;;24.00;99.90;;;;;;6187269;23;20424;-41
2021/07/07 13:36:18;;;;;;;4.23;2.50;;;23.80;99.90;;;;;;6187224;23;20401;-42
2021/07/07 13:38:44;;;;;;;2.63;2.30;;;23.90;99.90;;;;;;6187129;23;20409;-44
2021/07/07 13:41:11;;;;;;;2.87;2.40;;;24.00;99.90;;;;;;6186677;23;20905;-44
2021/07/07 13:43:42;;;;;;;3.43;2.60;;;24.10;99.90;;;;;;6186545;23;20444;-41
2021/07/07 13:46:08;;;;;;;5.27;2.60;;;24.10;99.90;;;;;;6187290;23;20460;-42
2021/07/07 13:48:35;;;;;;;3.20;2.90;;;24.10;99.90;;;;;;6186608;23;20487;-44
2021/07/07 13:51:03;;;;;;;3.73;2.33;;;24.10;99.90;;;;;;6187302;23;20412;-43
2021/07/07 13:53:30;;;;;;;2.80;2.60;;;23.90;99.90;;;;;;6186387;23;20456;-41
2021/07/07 13:55:57;;;;;;;5.47;2.50;;;23.90;99.90;;;;;;6187084;23;20863;-42
2021/07/07 13:58:23;;;;;;;2.60;2.40;;;23.80;99.90;;;;;;6188739;23;20911;-42
2021/07/07 14:00:50;;;;;;;4.17;3.23;;;23.90;99.90;;;;;;6189030;23;20747;-43
2021/07/07 14:03:17;;;;;;;3.37;3.07;;;23.90;99.90;;;;;;6188588;23;20531;-44
2021/07/07 14:05:43;;;;;;;3.57;3.10;;;23.80;99.90;;;;;;6189170;23;20404;-43
2021/07/07 14:08:13;;;;;;;4.00;3.60;;;23.90;99.90;;;;;;6188586;23;20405;-50
2021/07/07 14:10:39;;;;;;;3.40;3.10;;;24.10;99.90;;;;;;6205270;23;20479;-48
2021/07/07 14:13:06;;;;;;;8.70;3.30;;;24.20;99.90;;;;;;6203331;23;20397;-43
2021/07/07 14:15:33;;;;;;;3.20;2.90;;;24.00;99.90;;;;;;6198019;23;20408;-42
2021/07/07 14:18:00;;;;;;;3.77;3.37;;;24.00;99.90;;;;;;6208119;23;20424;-49
2021/07/07 14:20:34;;;;;;;4.43;3.37;;;24.00;99.90;;;;;;6212829;23;20408;-51
2021/07/07 14:23:03;;;;;;;3.57;3.27;;;24.10;99.90;;;;;;6214497;23;20415;-52
2021/07/07 14:25:31;;;;;;;4.93;3.43;;;24.30;99.90;;;;;;6214747;23;20416;-52
2021/07/07 14:28:00;;;;;;;4.30;3.27;;;24.50;99.90;;;;;;6214571;23;20393;-49
2021/07/07 14:30:26;;;;;;;3.20;2.90;;;24.50;99.90;;;;;;6190393;23;20408;-44
2021/07/07 14:38:04;;;;;;;5.33;4.73;;;24.30;99.90;;;;;;6136887;23;20453;-46
2021/07/07 14:40:32;;;;;;;5.30;3.43;;;24.00;99.90;;;;;;6168045;23;20409;-45
2021/07/07 14:42:59;;;;;;;5.23;4.20;;;23.70;99.90;;;;;;6166717;23;20464;-46
2021/07/07 14:45:26;;;;;;;3.70;3.40;;;23.60;99.90;;;;;;6166109;23;20405;-44
2021/07/07 14:47:53;;;;;;;4.17;3.77;;;23.40;99.90;;;;;;6165736;23;20415;-45
2021/07/07 14:50:23;;;;;;;3.40;3.10;;;23.30;99.90;;;;;;6165437;23;20413;-49
2021/07/07 14:52:51;;;;;;;3.80;3.30;;;23.10;99.90;;;;;;6174164;23;20367;-45
2021/07/07 15:00:31;;;;;;;6.13;4.90;;;23.00;99.90;;;;;;6104345;23;20366;-45
2021/07/07 15:02:58;;;;;;;5.90;4.50;;;23.20;99.90;;;;;;6195905;23;20509;-45
2021/07/07 15:15:46;;;;;;;4.93;4.43;;;23.10;99.90;;;;;;6198479;23;20440;-43
2021/07/07 15:18:13;;;;;;;4.87;4.37;;;23.10;99.90;;;;;;6188226;23;20425;-46
2021/07/07 15:20:42;;;;;;;5.90;4.53;;;23.00;99.90;;;;;;6187745;23;20428;-45
2021/07/07 15:23:09;;;;;;;8.00;4.73;;;23.00;99.90;;;;;;6187316;23;20440;-45
2021/07/07 15:25:36;;;;;;;4.67;4.23;;;22.90;99.90;;;;;;6187370;23;20790;-50
2021/07/07 15:28:04;;;;;;;4.70;4.30;;;22.90;99.90;;;;;;6185726;23;20483;-41
2021/07/07 15:30:30;;;;;;;7.40;4.70;;;22.90;99.90;;;;;;6186976;23;20470;-44
2021/07/07 15:32:58;;;;;;;5.60;4.17;;;22.80;99.90;;;;;;6187155;23;20463;-44
2021/07/07 15:35:25;;;;;;;5.07;4.57;;;22.90;99.90;;;;;;6187541;23;20417;-41
2021/07/07 15:37:52;;;;;;;4.00;3.70;;;22.90;99.90;;;;;;6187564;23;20709;-46
2021/07/07 15:40:19;;;;;;;3.97;3.67;;;22.90;99.90;;;;;;6187342;23;20405;-45
2021/07/07 15:42:46;;;;;;;6.10;3.50;;;22.90;99.90;;;;;;6187361;23;20569;-49
2021/07/07 15:45:13;;;;;;;3.27;2.93;;;22.90;99.90;;;;;;6187561;23;20437;-43
2021/07/07 15:47:40;;;;;;;3.87;3.57;;;23.00;99.90;;;;;;6187564;23;20417;-42
2021/07/07 15:50:09;;;;;;;3.10;2.30;;;23.20;99.90;;;;;;6187512;23;20421;-44
2021/07/07 15:52:36;;;;;;;5.60;3.07;;;23.30;99.90;;;;;;6187567;23;20463;-44
2021/07/07 15:55:02;;;;;;;3.23;2.27;;;23.40;99.90;;;;;;6187055;23;20495;-44
2021/07/07 15:57:29;;;;;;;6.63;2.90;;;23.40;99.90;;;;;;6187561;23;20709;-45
2021/07/07 15:59:56;;;;;;;4.70;2.80;;;23.40;99.90;;;;;;6187375;23;20778;-46
2021/07/07 16:02:23;;;;;;;3.30;3.00;;;23.40;99.90;;;;;;6187078;23;20432;-44
2021/07/07 16:04:50;;;;;;;2.43;2.23;;;23.40;99.90;;;;;;6187281;23;20405;-49
2021/07/07 16:07:18;;;;;;;2.60;2.40;;;23.50;99.90;;;;;;6187102;23;20436;-42
2021/07/07 16:09:44;;;;;;;3.97;2.80;;;23.50;99.90;;;;;;6187485;23;20467;-44
2021/07/07 16:12:11;;;;;;;6.50;3.13;;;23.50;99.90;;;;;;6187368;23;20409;-43
2021/07/07 16:14:38;;;;;;;3.37;2.60;;;23.50;99.90;;;;;;6187046;23;20445;-43
2021/07/07 16:17:04;;;;;;;2.90;2.70;;;23.50;99.90;;;;;;6187229;23;20683;-44
2021/07/07 16:19:31;;;;;;;3.77;3.37;;;23.60;99.90;;;;;;6186874;23;20409;-41
2021/07/07 16:21:58;;;;;;;3.60;2.90;;;23.60;99.90;;;;;;6186910;23;20413;-41
2021/07/07 16:24:26;;;;;;;5.27;3.80;;;23.60;99.90;;;;;;6186760;23;20503;-44
2021/07/07 16:26:53;;;;;;;2.80;2.60;;;23.60;99.90;;;;;;6187271;23;20412;-42
2021/07/07 16:29:20;;;;;;;4.17;2.87;;;23.60;99.90;;;;;;6187176;23;20404;-42
2021/07/07 16:31:47;;;;;;;2.97;2.50;;;23.70;99.90;;;;;;6186790;23;20439;-50
2021/07/07 16:34:13;;;;;;;3.47;2.63;;;23.70;99.90;;;;;;6186690;23;20527;-44
2021/07/07 16:36:40;;;;;;;2.47;2.27;;;23.70;99.90;;;;;;6187038;23;20420;-44
2021/07/07 16:39:07;;;;;;;10.87;7.50;;;23.70;99.90;;;;;;6187050;23;20405;-44
2021/07/07 16:41:35;;;;;;;11.43;6.53;;;23.80;99.90;;;;;;6187049;23;20428;-45
2021/07/07 16:44:02;;;;;;;6.97;4.60;;;23.80;99.90;;;;;;6186549;23;20452;-41
2021/07/07 16:46:29;;;;;;;3.13;2.83;;;23.80;99.90;;;;;;6186584;23;20911;-49
2021/07/07 16:48:59;;;;;;;2.60;2.40;;;23.80;99.90;;;;;;6186816;23;20733;-43
2021/07/07 16:51:26;;;;;;;4.13;3.00;;;23.70;99.90;;;;;;6186642;23;20926;-49
2021/07/07 16:53:52;;;;;;;5.07;2.37;;;23.60;99.90;;;;;;6186529;23;20898;-48
2021/07/07 16:56:19;;;;;;;3.47;2.67;;;23.60;99.90;;;;;;6186464;23;20467;-42
2021/07/07 16:58:47;;;;;;;2.43;2.23;;;23.70;99.90;;;;;;6186817;23;20416;-48
2021/07/07 17:01:14;;;;;;;2.27;2.00;;;23.70;99.90;;;;;;6186478;23;20412;-44
2021/07/07 17:03:40;;;;;;;2.67;2.23;;;23.50;99.90;;;;;;6186772;23;20500;-48
2021/07/07 17:06:08;;;;;;;2.93;2.27;;;23.40;99.90;;;;;;6187215;23;20424;-47
2021/07/07 17:08:35;;;;;;;6.07;4.90;;;23.30;99.90;;;;;;6186826;23;20405;-46
2021/07/07 17:11:01;;;;;;;3.00;2.80;;;23.30;99.90;;;;;;6186890;23;20460;-42
2021/07/07 17:13:28;;;;;;;2.63;2.40;;;23.20;99.90;;;;;;6186204;23;20425;-46
2021/07/07 17:15:56;;;;;;;2.20;2.00;;;23.20;99.90;;;;;;6186862;23;20452;-46
2021/07/07 17:18:22;;;;;;;3.37;3.00;;;23.00;99.90;;;;;;6186730;23;20413;-47
2021/07/07 17:20:49;;;;;;;3.00;2.23;;;22.90;99.90;;;;;;6186791;23;20401;-47
2021/07/07 17:23:17;;;;;;;2.67;2.43;;;22.90;99.90;;;;;;6186659;23;20922;-45
2021/07/07 17:25:44;;;;;;;2.03;1.87;;;22.80;99.90;;;;;;6186771;23;20405;-42
2021/07/07 17:28:11;;;;;;;1.80;1.70;;;22.90;99.90;;;;;;6186678;23;20881;-42
2021/07/07 17:30:37;;;;;;;2.13;1.93;;;23.00;99.90;;;;;;6186668;23;20755;-43
2021/07/07 17:33:06;;;;;;;2.10;1.90;;;23.00;99.90;;;;;;6186434;23;20416;-41
2021/07/07 17:35:33;;;;;;;2.30;2.10;;;23.00;99.90;;;;;;6186692;23;20463;-43
2021/07/07 17:37:59;;;;;;;3.10;2.20;;;23.00;99.90;;;;;;6186675;23;20405;-42
2021/07/07 17:40:26;;;;;;;2.70;2.37;;;23.00;99.90;;;;;;6186083;23;20903;-46
2021/07/07 17:42:53;;;;;;;2.30;2.10;;;22.90;99.90;;;;;;6186458;23;20405;-41
2021/07/07 17:45:20;;;;;;;2.10;2.00;;;22.90;99.90;;;;;;6186588;23;20409;-44
2021/07/07 17:47:46;;;;;;;2.10;1.90;;;22.90;99.90;;;;;;6186135;23;20413;-44
2021/07/07 17:50:15;;;;;;;1.63;1.53;;;22.80;99.90;;;;;;6186222;23;20876;-42
2021/07/07 17:52:41;;;;;;;2.20;2.00;;;22.70;99.90;;;;;;6186205;23;20888;-45
2021/07/07 17:55:09;;;;;;;5.83;2.30;;;22.60;99.90;;;;;;6186591;23;20400;-42
2021/07/07 17:57:39;;;;;;;2.57;1.63;;;22.60;99.90;;;;;;6186546;23;20424;-49
2021/07/07 18:00:08;;;;;;;1.93;1.83;;;22.60;99.90;;;;;;6186641;23;20415;-52
2021/07/07 18:02:34;;;;;;;2.50;2.30;;;22.60;99.90;;;;;;6186641;23;20417;-44
2021/07/07 18:05:01;;;;;;;15.30;6.60;;;22.60;99.90;;;;;;6186488;23;20448;-42
2021/07/07 18:07:29;;;;;;;2.47;2.10;;;22.50;99.90;;;;;;6186544;23;20417;-41
2021/07/07 18:09:55;;;;;;;2.43;1.77;;;22.50;99.90;;;;;;6186552;23;20734;-41
2021/07/07 18:12:23;;;;;;;2.77;2.13;;;22.50;99.90;;;;;;6186473;23;20572;-42
2021/07/07 18:14:50;;;;;;;2.17;1.97;;;22.60;99.90;;;;;;6186097;23;20440;-43
2021/07/07 18:17:17;;;;;;;3.53;2.57;;;22.50;99.90;;;;;;6186140;23;20951;-43
2021/07/07 18:19:44;;;;;;;9.43;7.10;;;22.50;99.90;;;;;;6186567;23;20405;-48
2021/07/07 18:22:11;;;;;;;7.63;5.57;;;22.60;99.90;;;;;;6186410;23;20408;-48
2021/07/07 18:24:39;;;;;;;3.47;2.60;;;22.60;99.90;;;;;;6186299;23;20507;-46
2021/07/07 18:27:06;;;;;;;2.30;2.10;;;22.60;99.90;;;;;;6186352;23;20404;-47
2021/07/07 18:29:33;;;;;;;2.33;2.03;;;22.50;99.90;;;;;;6186088;23;20413;-50
2021/07/07 18:31:59;;;;;;;2.73;2.00;;;22.50;99.90;;;;;;6186487;23;20405;-46
2021/07/07 18:34:26;;;;;;;3.63;2.03;;;22.40;99.90;;;;;;6186110;23;20424;-47
2021/07/07 18:36:53;;;;;;;1.97;1.77;;;22.40;99.90;;;;;;6186383;23;20421;-46
2021/07/07 18:39:21;;;;;;;2.17;1.70;;;22.40;99.90;;;;;;6186417;23;20462;-46
2021/07/07 18:41:49;;;;;;;2.53;2.13;;;22.40;99.90;;;;;;6186336;23;20427;-44
2021/07/07 18:44:16;;;;;;;2.80;1.87;;;22.30;99.90;;;;;;6187159;23;20441;-43
2021/07/07 18:46:43;;;;;;;2.10;1.90;;;22.30;99.90;;;;;;6188166;23;20471;-53
2021/07/07 18:49:10;;;;;;;2.60;2.27;;;22.30;99.90;;;;;;6188125;23;20428;-45
2021/07/07 18:51:36;;;;;;;2.33;2.07;;;22.30;99.90;;;;;;6188083;23;20478;-45
2021/07/07 18:54:03;;;;;;;3.17;2.80;;;22.30;99.90;;;;;;6187684;23;20436;-49
2021/07/07 18:56:30;;;;;;;3.07;2.60;;;22.20;99.90;;;;;;6188152;23;20416;-42
2021/07/07 18:58:58;;;;;;;2.77;2.10;;;22.20;99.90;;;;;;6188027;23;20752;-42
2021/07/07 19:01:27;;;;;;;3.00;2.63;;;22.10;99.90;;;;;;6187732;23;20416;-46
2021/07/07 19:03:53;;;;;;;4.80;2.73;;;22.10;99.90;;;;;;6187447;23;20930;-47
2021/07/07 19:06:20;;;;;;;3.50;3.13;;;22.10;99.90;;;;;;6187524;23;20417;-48
2021/07/07 19:08:47;;;;;;;3.80;3.50;;;22.00;99.90;;;;;;6187470;23;20408;-46
2021/07/07 19:11:14;;;;;;;4.10;2.10;;;22.00;99.90;;;;;;6187836;23;20401;-45
2021/07/07 19:13:41;;;;;;;3.80;3.00;;;21.90;99.90;;;;;;6187538;23;20487;-46
2021/07/07 19:16:09;;;;;;;3.37;2.13;;;21.90;99.90;;;;;;6187545;23;20400;-48
2021/07/07 19:18:36;;;;;;;3.93;2.87;;;21.90;99.90;;;;;;6187863;23;20404;-46
2021/07/07 19:21:03;;;;;;;6.00;2.77;;;21.80;99.90;;;;;;6187761;23;20416;-45
2021/07/07 19:23:30;;;;;;;2.67;2.47;;;21.80;99.90;;;;;;6187708;23;20525;-42
2021/07/07 19:25:57;;;;;;;2.60;2.40;;;21.70;99.90;;;;;;6187765;23;20408;-46
2021/07/07 19:28:23;;;;;;;2.77;2.30;;;21.70;99.90;;;;;;6187739;23;20435;-42
2021/07/07 19:30:50;;;;;;;3.90;2.30;;;21.60;99.90;;;;;;6187728;23;20795;-48
2021/07/07 19:33:18;;;;;;;3.03;2.30;;;21.60;99.90;;;;;;6187692;23;20759;-44
2021/07/07 19:35:45;;;;;;;3.13;2.60;;;21.50;99.90;;;;;;6187654;23;20835;-47
2021/07/07 19:38:12;;;;;;;3.90;2.73;;;21.50;99.90;;;;;;6187197;23;20405;-42
2021/07/07 19:40:41;;;;;;;5.00;3.67;;;21.50;99.90;;;;;;6187621;23;20717;-43
2021/07/07 19:43:07;;;;;;;5.23;3.60;;;21.50;99.90;;;;;;6187562;23;20498;-47
2021/07/07 19:45:34;;;;;;;9.70;4.10;;;21.50;99.90;;;;;;6187087;23;20927;-41
2021/07/07 19:48:01;;;;;;;4.60;3.20;;;21.50;99.90;;;;;;6187585;23;20470;-42
2021/07/07 19:50:30;;;;;;;4.23;3.30;;;21.40;99.90;;;;;;6187092;23;20491;-43
2021/07/07 19:52:57;;;;;;;3.60;3.07;;;21.40;99.90;;;;;;6186787;23;20892;-49
2021/07/07 19:55:24;;;;;;;4.97;3.67;;;21.40;99.90;;;;;;6187439;23;20413;-42
2021/07/07 19:57:51;;;;;;;3.97;3.57;;;21.30;99.90;;;;;;6187480;23;20408;-45
2021/07/07 20:00:21;;;;;;;5.30;4.00;;;21.30;99.90;;;;;;6187435;23;20431;-45
2021/07/07 20:02:51;;;;;;;4.97;3.90;;;21.20;99.90;;;;;;6187096;23;20724;-42
2021/07/07 20:05:19;;;;;;;4.37;3.93;;;21.20;99.90;;;;;;6187407;23;20457;-41
2021/07/07 20:07:47;;;;;;;3.80;3.50;;;21.10;99.90;;;;;;6187417;23;20409;-43
2021/07/07 20:10:16;;;;;;;4.40;3.87;;;21.10;99.90;;;;;;6186890;23;20891;-45
2021/07/07 20:12:50;;;;;;;5.20;3.40;;;21.00;99.90;;;;;;6187275;23;20405;-47
2021/07/07 20:15:17;;;;;;;7.20;4.27;;;21.00;99.90;;;;;;6186809;23;20452;-50
2021/07/07 20:17:45;;;;;;;5.87;3.47;;;20.90;99.90;;;;;;6186724;23;20409;-46
2021/07/07 20:20:13;;;;;;;5.50;4.43;;;20.90;99.90;;;;;;6187228;23;20690;-46
2021/07/07 20:22:40;;;;;;;6.60;4.03;;;20.90;99.90;;;;;;6187221;23;20467;-43
2021/07/07 20:25:11;;;;;;;5.30;4.37;;;20.80;99.90;;;;;;6186852;23;20464;-43
2021/07/07 20:27:39;;;;;;;5.90;4.90;;;20.80;99.90;;;;;;6187211;23;20415;-45
2021/07/07 20:30:08;;;;;;;8.47;4.80;;;20.80;99.90;;;;;;6187134;23;20420;-45
2021/07/07 20:32:35;;;;;;;8.80;5.13;;;20.80;99.90;;;;;;6187211;23;20483;-45
2021/07/07 20:35:02;;;;;;;4.93;4.47;;;20.70;99.90;;;;;;6187083;23;20417;-49
2021/07/07 20:37:28;;;;;;;5.97;5.27;;;20.60;99.90;;;;;;6186758;23;20894;-42
2021/07/07 20:39:55;;;;;;;5.90;5.20;;;20.60;99.90;;;;;;6186979;23;20409;-49
2021/07/07 20:42:23;;;;;;;6.70;4.90;;;20.60;99.90;;;;;;6186692;23;20466;-48
2021/07/07 20:44:50;;;;;;;7.90;5.53;;;20.60;99.90;;;;;;6186925;23;20717;-47
2021/07/07 20:47:17;;;;;;;4.13;3.73;;;20.60;99.90;;;;;;6186666;23;20719;-41
2021/07/07 20:49:44;;;;;;;5.80;5.20;;;20.60;99.90;;;;;;6186973;23;20405;-43
2021/07/07 20:52:11;;;;;;;5.97;5.37;;;20.50;99.90;;;;;;6187029;23;20475;-42
2021/07/07 20:54:37;;;;;;;5.10;4.70;;;20.50;99.90;;;;;;6186991;23;20408;-43
2021/07/07 20:57:05;;;;;;;6.20;4.47;;;20.50;99.90;;;;;;6186906;23;20412;-49
2021/07/07 20:59:33;;;;;;;6.57;4.73;;;20.50;99.90;;;;;;6186879;23;20771;-46
2021/07/07 21:01:59;;;;;;;11.60;6.97;;;20.50;99.90;;;;;;6186874;23;20471;-50
2021/07/07 21:04:26;;;;;;;6.20;5.60;;;20.50;99.90;;;;;;6186395;23;20472;-44
2021/07/07 21:06:53;;;;;;;5.90;5.30;;;20.40;99.90;;;;;;6186584;23;20405;-43
2021/07/07 21:09:20;;;;;;;6.90;6.17;;;20.40;99.90;;;;;;6186848;23;20763;-47
2021/07/07 21:11:46;;;;;;;7.77;6.30;;;20.40;99.90;;;;;;6186817;23;20404;-45
2021/07/07 21:14:13;;;;;;;6.93;5.93;;;20.40;99.90;;;;;;6186407;23;20441;-48
2021/07/07 21:16:41;;;;;;;6.90;6.10;;;20.30;99.90;;;;;;6186868;23;20447;-43
2021/07/07 21:19:08;;;;;;;7.03;6.20;;;20.30;99.90;;;;;;6186710;23;20739;-49
2021/07/07 21:21:35;;;;;;;7.10;6.27;;;20.30;99.90;;;;;;6186811;23;20405;-43
2021/07/07 21:24:03;;;;;;;6.47;5.80;;;20.30;99.90;;;;;;6186277;23;20440;-48
2021/07/07 21:26:30;;;;;;;8.30;7.30;;;20.30;99.90;;;;;;6186316;23;20421;-45
2021/07/07 21:28:56;;;;;;;8.47;6.43;;;20.30;99.90;;;;;;6186308;23;20412;-45
2021/07/07 21:31:23;;;;;;;8.07;6.90;;;20.30;99.90;;;;;;6186693;23;20405;-45
2021/07/07 21:33:51;;;;;;;6.57;5.27;;;20.30;99.90;;;;;;6186659;23;20421;-50
2021/07/07 21:36:19;;;;;;;9.57;5.97;;;20.20;99.90;;;;;;6186635;23;20401;-46
2021/07/07 21:38:46;;;;;;;7.37;6.33;;;20.20;99.90;;;;;;6186705;23;20413;-48
2021/07/07 21:41:13;;;;;;;10.13;5.70;;;20.20;99.90;;;;;;6186682;23;20423;-41
2021/07/07 21:43:40;;;;;;;7.43;5.80;;;20.20;99.90;;;;;;6186428;23;20416;-45
2021/07/07 21:46:09;;;;;;;8.90;6.03;;;20.20;99.90;;;;;;6186649;23;20528;-49
2021/07/07 21:48:36;;;;;;;6.80;5.80;;;20.20;99.90;;;;;;6186257;23;20499;-45
2021/07/07 21:51:04;;;;;;;7.30;6.30;;;20.10;99.90;;;;;;6186662;23;20766;-48
2021/07/07 21:53:31;;;;;;;6.90;6.17;;;20.10;99.90;;;;;;6186599;23;20408;-46
2021/07/07 21:55:58;;;;;;;7.50;6.60;;;20.10;99.90;;;;;;6186659;23;20475;-44
2021/07/07 21:58:25;;;;;;;7.93;6.10;;;20.10;99.90;;;;;;6186378;23;20892;-42
2021/07/07 22:00:52;;;;;;;6.30;5.33;;;20.10;99.90;;;;;;6186375;23;20412;-45
2021/07/07 22:03:19;;;;;;;5.77;4.90;;;20.10;99.90;;;;;;6186500;23;20433;-44
2021/07/07 22:05:46;;;;;;;6.00;5.20;;;20.10;99.90;;;;;;6186557;23;20533;-42
2021/07/07 22:08:14;;;;;;;5.43;4.90;;;20.10;99.90;;;;;;6186238;23;20405;-46
2021/07/07 22:10:41;;;;;;;5.40;4.67;;;20.10;99.90;;;;;;6186567;23;20776;-46
2021/07/07 22:13:07;;;;;;;6.20;5.37;;;20.10;99.90;;;;;;6186574;23;20409;-43
2021/07/07 22:15:34;;;;;;;6.70;4.73;;;20.10;99.90;;;;;;6185958;23;20463;-47
2021/07/07 22:18:01;;;;;;;6.50;5.40;;;20.10;99.90;;;;;;6186088;23;20417;-44
2021/07/07 22:20:27;;;;;;;5.83;5.23;;;20.20;99.90;;;;;;6188390;23;20754;-44
2021/07/07 22:22:54;;;;;;;6.00;5.40;;;20.20;99.90;;;;;;6187962;23;20412;-45
2021/07/07 22:25:22;;;;;;;5.80;4.93;;;20.20;99.90;;;;;;6188306;23;20494;-43
2021/07/07 22:27:50;;;;;;;7.77;5.10;;;20.10;99.90;;;;;;6188292;23;20416;-45
2021/07/07 22:30:20;;;;;;;5.40;4.87;;;20.10;99.90;;;;;;6188289;23;20404;-41
2021/07/07 22:32:47;;;;;;;5.60;5.00;;;20.10;99.90;;;;;;6187988;23;20478;-45
2021/07/07 22:35:15;;;;;;;5.60;5.10;;;20.10;99.90;;;;;;6187907;23;20941;-41
2021/07/07 22:37:42;;;;;;;5.87;4.53;;;20.10;99.90;;;;;;6188438;23;20415;-40
2021/07/07 22:40:10;;;;;;;4.53;4.13;;;20.10;99.90;;;;;;6188237;23;20471;-45
2021/07/07 22:42:38;;;;;;;4.73;4.33;;;20.10;99.90;;;;;;6188390;23;20883;-49
2021/07/07 22:45:07;;;;;;;6.63;4.97;;;20.10;99.90;;;;;;6188087;23;20447;-41
2021/07/07 22:47:35;;;;;;;5.13;4.67;;;20.10;99.90;;;;;;6188141;23;20467;-43
2021/07/07 22:50:04;;;;;;;4.93;4.43;;;20.10;99.90;;;;;;6188177;23;20511;-42
2021/07/07 22:52:31;;;;;;;4.47;4.10;;;20.10;99.90;;;;;;6188159;23;20409;-43
2021/07/07 22:54:57;;;;;;;5.67;4.57;;;20.20;99.90;;;;;;6188141;23;20496;-45
2021/07/07 22:57:24;;;;;;;4.63;4.13;;;20.10;99.90;;;;;;6188115;23;20918;-43
2021/07/07 22:59:52;;;;;;;5.33;4.13;;;20.10;99.90;;;;;;6188088;23;20405;-48
2021/07/07 23:02:19;;;;;;;6.27;4.23;;;20.20;99.90;;;;;;6186368;23;20413;-48
2021/07/07 23:04:45;;;;;;;9.00;5.20;;;20.20;99.90;;;;;;6187191;23;20751;-43
2021/07/07 23:07:12;;;;;;;6.23;4.53;;;20.20;99.90;;;;;;6187300;23;20413;-46
2021/07/07 23:09:38;;;;;;;4.63;4.20;;;20.20;99.90;;;;;;6187349;23;20405;-47
2021/07/07 23:12:06;;;;;;;4.60;4.20;;;20.20;99.90;;;;;;6187329;23;20405;-45
2021/07/07 23:14:33;;;;;;;5.43;4.50;;;20.20;99.90;;;;;;6187356;23;20499;-47
2021/07/07 23:17:01;;;;;;;6.13;4.23;;;20.20;99.90;;;;;;6187666;23;20400;-47
2021/07/07 23:19:27;;;;;;;4.20;3.80;;;20.30;99.90;;;;;;6187626;23;20895;-43
2021/07/07 23:21:54;;;;;;;4.03;3.67;;;20.20;99.90;;;;;;6187191;23;20938;-44
2021/07/07 23:24:21;;;;;;;5.33;4.30;;;20.30;99.90;;;;;;6187265;23;20401;-46
2021/07/07 23:26:47;;;;;;;5.47;4.70;;;20.30;99.90;;;;;;6187530;23;20451;-47
2021/07/07 23:29:14;;;;;;;5.40;4.90;;;20.30;99.90;;;;;;6187506;23;20409;-44
2021/07/07 23:31:41;;;;;;;5.03;4.47;;;20.30;99.90;;;;;;6187545;23;20520;-46
2021/07/07 23:34:09;;;;;;;4.90;4.47;;;20.30;99.90;;;;;;6187183;23;20420;-44
2021/07/07 23:36:36;;;;;;;5.30;4.80;;;20.30;99.90;;;;;;6187639;23;20424;-43
2021/07/07 23:39:03;;;;;;;11.63;4.23;;;20.30;99.90;;;;;;6187540;23;20405;-48
2021/07/07 23:41:30;;;;;;;4.60;4.20;;;20.30;99.90;;;;;;6187103;23;20413;-45
2021/07/07 23:43:57;;;;;;;5.27;4.80;;;20.30;99.90;;;;;;6187338;23;20705;-44
2021/07/07 23:46:24;;;;;;;4.73;4.33;;;20.20;99.90;;;;;;6187371;23;20444;-44
2021/07/07 23:48:50;;;;;;;6.00;5.40;;;20.20;99.90;;;;;;6187072;23;20420;-44
2021/07/07 23:51:19;;;;;;;5.57;4.90;;;20.20;99.90;;;;;;6187496;23;20414;-47
2021/07/07 23:53:45;;;;;;;5.40;5.00;;;20.20;99.90;;;;;;6186918;23;21032;-42
2021/07/07 23:56:12;;;;;;;5.80;5.30;;;20.20;99.90;;;;;;6186853;23;20405;-41
2021/07/07 23:58:39;;;;;;;5.03;4.60;;;20.10;99.90;;;;;;6187216;23;20428;-49
